Time;durP1;ratioP1;P1;durP2;ratioP2;P2;SDS_P1;SDS_P2;PMS_P1;PMS_P2;Temp;Humidity;BMP_temperature;BMP_pressure;BME280_temperature;BME280_humidity;BME280_pressure;Samples;Min_cycle;Max_cycle;Signal;HPM_P1;HPM_P2
2024/02/13 00:00:25;;;;;;;6.43;3.63;;;;;;;;;;4999362;28;20332;-78
2024/02/13 00:02:52;;;;;;;7.55;3.22;;;;;;;;;;4999896;28;20050;-79
2024/02/13 00:05:19;;;;;;;10.90;3.97;;;;;;;;;;4998168;28;20039;-79
2024/02/13 00:07:46;;;;;;;10.63;4.20;;;;;;;;;;4999689;28;20508;-78
2024/02/13 00:10:13;;;;;;;11.70;4.20;;;;;;;;;;4998986;28;20046;-78
2024/02/13 00:12:40;;;;;;;7.95;3.72;;;;;;;;;;4999782;28;20477;-78
2024/02/13 00:15:14;;;;;;;8.13;3.17;;;;;;;;;;4999097;28;20045;-79
2024/02/13 00:17:41;;;;;;;11.05;3.80;;;;;;;;;;4999592;28;20133;-78
2024/02/13 00:20:10;;;;;;;11.68;4.60;;;;;;;;;;4999085;28;20505;-77
2024/02/13 00:22:37;;;;;;;9.50;3.80;;;;;;;;;;4999421;28;20566;-78
2024/02/13 00:25:05;;;;;;;14.55;5.30;;;;;;;;;;4999443;28;20049;-78
2024/02/13 00:27:33;;;;;;;12.75;5.15;;;;;;;;;;4999782;28;20515;-78
2024/02/13 00:30:03;;;;;;;11.07;4.47;;;;;;;;;;4999995;28;20053;-78
2024/02/13 00:32:31;;;;;;;10.13;4.65;;;;;;;;;;4999855;28;20105;-78
2024/02/13 00:34:58;;;;;;;13.27;4.10;;;;;;;;;;4998198;28;20045;-78
2024/02/13 00:37:25;;;;;;;8.98;4.53;;;;;;;;;;4997770;28;20104;-78
2024/02/13 00:39:54;;;;;;;9.45;3.88;;;;;;;;;;4997942;28;20096;-77
2024/02/13 00:42:21;;;;;;;10.70;3.70;;;;;;;;;;4997404;28;20049;-78
2024/02/13 00:44:49;;;;;;;6.88;3.60;;;;;;;;;;4998024;28;20069;-78
2024/02/13 00:47:17;;;;;;;7.45;3.85;;;;;;;;;;4997620;28;20355;-78
2024/02/13 00:49:45;;;;;;;17.33;5.05;;;;;;;;;;4997715;28;20042;-78
2024/02/13 00:52:12;;;;;;;10.02;4.85;;;;;;;;;;4997366;28;20545;-79
2024/02/13 00:54:39;;;;;;;6.97;4.53;;;;;;;;;;4997861;28;20077;-79
2024/02/13 00:57:05;;;;;;;8.75;3.80;;;;;;;;;;4995847;28;20046;-78
2024/02/13 00:59:32;;;;;;;6.00;2.85;;;;;;;;;;4993928;28;20137;-78
2024/02/13 01:01:59;;;;;;;6.78;2.10;;;;;;;;;;4996212;28;20051;-78
2024/02/13 01:04:26;;;;;;;7.57;1.63;;;;;;;;;;4995660;28;20042;-78
2024/02/13 01:06:55;;;;;;;6.47;1.63;;;;;;;;;;4996074;28;20137;-78
2024/02/13 01:09:22;;;;;;;5.28;1.10;;;;;;;;;;4995364;28;20359;-78
2024/02/13 01:11:49;;;;;;;5.20;1.48;;;;;;;;;;4996015;28;20050;-77
2024/02/13 01:14:17;;;;;;;5.22;1.10;;;;;;;;;;4995484;28;20050;-78
2024/02/13 01:16:44;;;;;;;6.72;1.20;;;;;;;;;;4995847;28;20482;-78
2024/02/13 01:19:12;;;;;;;8.00;1.60;;;;;;;;;;4995353;28;20050;-77
2024/02/13 01:21:39;;;;;;;4.40;0.80;;;;;;;;;;4995940;28;20069;-78
2024/02/13 01:24:05;;;;;;;4.40;1.15;;;;;;;;;;4995210;28;20054;-78
2024/02/13 01:26:32;;;;;;;3.10;1.08;;;;;;;;;;4995768;28;20046;-78
2024/02/13 01:28:59;;;;;;;8.70;1.25;;;;;;;;;;4995689;28;20042;-78
2024/02/13 01:31:26;;;;;;;4.68;1.00;;;;;;;;;;4994987;28;20046;-79
2024/02/13 01:33:52;;;;;;;4.93;1.10;;;;;;;;;;4995544;28;20046;-78
2024/02/13 01:36:19;;;;;;;5.25;0.90;;;;;;;;;;4995071;28;20038;-79
2024/02/13 01:38:46;;;;;;;5.20;0.60;;;;;;;;;;4995540;28;20050;-78
2024/02/13 01:41:14;;;;;;;5.60;0.90;;;;;;;;;;4994807;28;20039;-78
2024/02/13 01:43:41;;;;;;;2.55;0.63;;;;;;;;;;4994225;28;20124;-79
2024/02/13 01:46:08;;;;;;;5.20;0.73;;;;;;;;;;4994781;28;20047;-78
2024/02/13 01:48:38;;;;;;;4.85;0.90;;;;;;;;;;4995340;28;20055;-79
2024/02/13 01:51:06;;;;;;;5.07;0.70;;;;;;;;;;4994774;28;20125;-79
2024/02/13 01:53:36;;;;;;;5.43;0.95;;;;;;;;;;4995090;28;20101;-79
2024/02/13 01:56:05;;;;;;;6.05;0.98;;;;;;;;;;4995143;28;20094;-78
2024/02/13 01:58:32;;;;;;;6.93;1.15;;;;;;;;;;4995092;28;20034;-78
2024/02/13 02:01:00;;;;;;;3.83;0.60;;;;;;;;;;4995005;28;20058;-78
2024/02/13 02:03:30;;;;;;;5.65;0.70;;;;;;;;;;4994531;28;20474;-78
2024/02/13 02:05:59;;;;;;;5.07;0.70;;;;;;;;;;4994955;28;20043;-78
2024/02/13 02:08:27;;;;;;;5.90;0.88;;;;;;;;;;4994098;28;20043;-78
2024/02/13 02:10:57;;;;;;;3.83;0.57;;;;;;;;;;4994729;28;20062;-78
2024/02/13 02:13:26;;;;;;;2.38;0.82;;;;;;;;;;4994484;28;20042;-78
2024/02/13 02:15:59;;;;;;;;;;;;;;;;;;4995225;28;20092;-79
2024/02/13 02:18:26;;;;;;;5.78;0.93;;;;;;;;;;4994238;28;19922;-78
2024/02/13 02:20:53;;;;;;;3.15;0.40;;;;;;;;;;4994761;28;20048;-78
2024/02/13 02:23:21;;;;;;;4.15;0.80;;;;;;;;;;4994309;28;20043;-78
2024/02/13 02:25:50;;;;;;;6.65;1.10;;;;;;;;;;4994722;28;20129;-78
2024/02/13 02:28:18;;;;;;;3.30;0.73;;;;;;;;;;4994045;28;20046;-78
2024/02/13 02:30:46;;;;;;;4.43;0.80;;;;;;;;;;4994328;28;20524;-77
2024/02/13 02:33:13;;;;;;;3.63;0.70;;;;;;;;;;4994047;28;20057;-78
2024/02/13 02:35:41;;;;;;;2.97;0.60;;;;;;;;;;4994546;28;20042;-77
2024/02/13 02:38:13;;;;;;;9.25;0.98;;;;;;;;;;4993934;28;20043;-78
2024/02/13 02:40:41;;;;;;;4.55;0.80;;;;;;;;;;4994226;28;20503;-77
2024/02/13 02:43:08;;;;;;;3.10;0.57;;;;;;;;;;4993804;28;20045;-78
2024/02/13 02:45:35;;;;;;;5.57;0.70;;;;;;;;;;4994249;28;20045;-77
2024/02/13 02:48:02;;;;;;;4.72;0.60;;;;;;;;;;4994279;28;20389;-78
2024/02/13 02:50:29;;;;;;;2.80;0.60;;;;;;;;;;4993496;28;20038;-78
2024/02/13 02:52:56;;;;;;;3.20;0.55;;;;;;;;;;4993956;28;20053;-78
2024/02/13 02:55:22;;;;;;;7.32;0.70;;;;;;;;;;4993434;28;20042;-78
2024/02/13 02:57:52;;;;;;;8.05;0.95;;;;;;;;;;4994054;28;20129;-78
2024/02/13 03:00:20;;;;;;;4.05;0.95;;;;;;;;;;4993423;28;20497;-78
2024/02/13 03:02:48;;;;;;;7.82;1.33;;;;;;;;;;4993856;28;20053;-77
2024/02/13 03:05:16;;;;;;;4.80;1.15;;;;;;;;;;4993359;28;20374;-78
2024/02/13 03:07:46;;;;;;;5.65;0.70;;;;;;;;;;4993847;28;20509;-77
2024/02/13 03:10:13;;;;;;;6.30;0.63;;;;;;;;;;4992970;28;20100;-78
2024/02/13 03:12:40;;;;;;;3.63;0.70;;;;;;;;;;4993923;28;20051;-77
2024/02/13 03:15:07;;;;;;;4.50;0.65;;;;;;;;;;4993194;28;20104;-78
2024/02/13 03:17:37;;;;;;;8.20;0.80;;;;;;;;;;4993646;28;20047;-79
2024/02/13 03:20:09;;;;;;;6.57;0.85;;;;;;;;;;4993299;28;20046;-79
2024/02/13 03:22:38;;;;;;;5.15;0.60;;;;;;;;;;4993469;28;20046;-79
2024/02/13 03:25:05;;;;;;;8.38;0.77;;;;;;;;;;4993023;28;20492;-78
2024/02/13 03:27:32;;;;;;;4.00;0.75;;;;;;;;;;4992427;28;20141;-78
2024/02/13 03:29:59;;;;;;;8.88;1.20;;;;;;;;;;4993578;28;20043;-79
2024/02/13 03:32:25;;;;;;;7.63;1.15;;;;;;;;;;4992825;28;20469;-78
2024/02/13 03:34:53;;;;;;;6.97;0.75;;;;;;;;;;4993556;28;20050;-79
2024/02/13 03:37:20;;;;;;;7.25;0.70;;;;;;;;;;4992989;28;20478;-78
2024/02/13 03:39:47;;;;;;;6.13;0.88;;;;;;;;;;4993346;28;20038;-79
2024/02/13 03:42:15;;;;;;;5.00;0.88;;;;;;;;;;4992844;28;20062;-79
2024/02/13 03:44:43;;;;;;;5.15;0.85;;;;;;;;;;4993441;28;20462;-79
2024/02/13 03:47:10;;;;;;;7.15;1.17;;;;;;;;;;4992935;28;20470;-79
2024/02/13 03:49:37;;;;;;;5.68;1.20;;;;;;;;;;4993092;28;20498;-78
2024/02/13 03:52:04;;;;;;;6.60;0.85;;;;;;;;;;4993368;28;20055;-78
2024/02/13 03:54:31;;;;;;;5.22;0.75;;;;;;;;;;4993247;28;20072;-79
2024/02/13 03:57:00;;;;;;;6.82;0.88;;;;;;;;;;4993223;28;20042;-78
2024/02/13 03:59:29;;;;;;;6.55;0.93;;;;;;;;;;4992617;28;20046;-78
2024/02/13 04:01:56;;;;;;;9.15;1.17;;;;;;;;;;4993355;28;20058;-78
2024/02/13 04:04:23;;;;;;;6.47;1.80;;;;;;;;;;4992672;28;20575;-79
2024/02/13 04:06:50;;;;;;;7.93;1.83;;;;;;;;;;4993191;28;20061;-79
2024/02/13 04:09:17;;;;;;;7.85;2.00;;;;;;;;;;4992472;28;20050;-79
2024/02/13 04:11:49;;;;;;;5.50;1.33;;;;;;;;;;4993041;28;20125;-79
2024/02/13 04:14:18;;;;;;;9.38;1.23;;;;;;;;;;4992633;28;20474;-79
2024/02/13 04:16:44;;;;;;;9.48;1.10;;;;;;;;;;4993214;28;20070;-79
2024/02/13 04:19:12;;;;;;;11.82;2.20;;;;;;;;;;4992529;28;20046;-80
2024/02/13 04:21:39;;;;;;;10.23;1.73;;;;;;;;;;4993028;28;20486;-79
2024/02/13 04:24:06;;;;;;;10.95;1.13;;;;;;;;;;4992603;28;20038;-79
2024/02/13 04:26:41;;;;;;;5.30;0.70;;;;;;;;;;4993053;28;20049;-79
2024/02/13 04:29:08;;;;;;;12.85;0.95;;;;;;;;;;4992722;28;20413;-79
2024/02/13 04:31:37;;;;;;;12.50;1.67;;;;;;;;;;4991868;28;20042;-79
2024/02/13 04:34:05;;;;;;;6.70;1.25;;;;;;;;;;4995456;28;20050;-78
2024/02/13 04:36:34;;;;;;;12.55;1.25;;;;;;;;;;4996879;28;20139;-78
2024/02/13 04:39:00;;;;;;;11.30;1.30;;;;;;;;;;4996625;28;20066;-77
2024/02/13 04:41:27;;;;;;;6.78;1.30;;;;;;;;;;4995948;28;20049;-78
2024/02/13 04:43:54;;;;;;;10.73;1.25;;;;;;;;;;4996524;28;20042;-79
2024/02/13 04:46:24;;;;;;;15.77;1.58;;;;;;;;;;4995957;28;20050;-78
2024/02/13 04:48:52;;;;;;;8.50;1.35;;;;;;;;;;4996354;28;20045;-79
2024/02/13 04:51:19;;;;;;;14.82;1.83;;;;;;;;;;4996103;28;20038;-79
2024/02/13 04:53:46;;;;;;;12.23;2.03;;;;;;;;;;4996351;28;20170;-79
2024/02/13 04:56:13;;;;;;;15.15;1.95;;;;;;;;;;4995599;28;20043;-78
2024/02/13 04:58:40;;;;;;;5.85;1.45;;;;;;;;;;4996330;28;20121;-78
2024/02/13 05:01:09;;;;;;;16.38;1.40;;;;;;;;;;4995804;28;20047;-79
2024/02/13 05:03:39;;;;;;;12.73;1.80;;;;;;;;;;4996106;28;20046;-79
2024/02/13 05:08:55;;;;;;;10.55;1.48;;;;;;;;;;4995933;28;20142;-78
2024/02/13 05:11:29;;;;;;;15.75;1.50;;;;;;;;;;4995538;28;20425;-79
2024/02/13 05:14:02;;;;;;;14.98;1.55;;;;;;;;;;4995978;28;20058;-79
2024/02/13 05:16:31;;;;;;;17.08;1.85;;;;;;;;;;4995591;28;20045;-79
2024/02/13 05:18:58;;;;;;;;;;;;;;;;;;4996242;28;20478;-77
2024/02/13 05:21:26;;;;;;;11.80;1.60;;;;;;;;;;4995323;28;19921;-79
2024/02/13 05:23:53;;;;;;;12.40;1.63;;;;;;;;;;4995978;28;20046;-78
2024/02/13 05:26:20;;;;;;;9.68;1.13;;;;;;;;;;4995150;28;20493;-79
2024/02/13 05:28:48;;;;;;;18.35;2.03;;;;;;;;;;4995595;28;20470;-79
2024/02/13 05:31:18;;;;;;;12.25;1.70;;;;;;;;;;4993975;28;20541;-79
2024/02/13 05:33:45;;;;;;;12.52;2.08;;;;;;;;;;4995607;28;20042;-84
2024/02/13 05:36:13;;;;;;;7.97;1.35;;;;;;;;;;4977308;28;20489;-84
2024/02/13 05:38:43;;;;;;;12.52;1.92;;;;;;;;;;4978372;28;20056;-79
2024/02/13 05:41:11;;;;;;;14.30;1.65;;;;;;;;;;4994918;28;20065;-79
2024/02/13 05:43:40;;;;;;;14.52;1.55;;;;;;;;;;4994900;28;20046;-80
2024/02/13 05:46:07;;;;;;;15.02;1.70;;;;;;;;;;4994680;28;20112;-80
2024/02/13 05:48:35;;;;;;;19.20;1.88;;;;;;;;;;4995371;28;20053;-80
2024/02/13 05:51:04;;;;;;;16.88;2.03;;;;;;;;;;4995024;28;20042;-78
2024/02/13 05:53:31;;;;;;;18.20;2.72;;;;;;;;;;4994948;28;20389;-78
2024/02/13 05:55:59;;;;;;;12.70;2.67;;;;;;;;;;4995392;28;20038;-79
2024/02/13 05:58:27;;;;;;;17.63;1.95;;;;;;;;;;4994757;28;20046;-79
2024/02/13 06:00:55;;;;;;;14.13;2.17;;;;;;;;;;4995013;28;20382;-79
2024/02/13 06:03:24;;;;;;;15.90;2.83;;;;;;;;;;4994530;28;20043;-79
2024/02/13 06:05:52;;;;;;;21.52;2.28;;;;;;;;;;4993878;28;20068;-79
2024/02/13 06:08:19;;;;;;;17.42;2.03;;;;;;;;;;4994283;28;20043;-79
2024/02/13 06:10:46;;;;;;;13.25;2.25;;;;;;;;;;4994898;28;20035;-79
2024/02/13 06:13:14;;;;;;;14.00;2.13;;;;;;;;;;4994393;28;20038;-78
2024/02/13 06:15:41;;;;;;;17.13;2.58;;;;;;;;;;4995003;28;20053;-79
2024/02/13 06:18:08;;;;;;;15.43;1.88;;;;;;;;;;4994159;28;20050;-79
2024/02/13 06:20:35;;;;;;;15.98;2.08;;;;;;;;;;4994539;28;20051;-79
2024/02/13 06:23:02;;;;;;;18.52;2.30;;;;;;;;;;4994677;28;20413;-78
2024/02/13 06:25:30;;;;;;;14.35;2.30;;;;;;;;;;4994251;28;20089;-78
2024/02/13 06:27:57;;;;;;;19.08;2.60;;;;;;;;;;4994772;28;20042;-79
2024/02/13 06:30:23;;;;;;;12.85;2.22;;;;;;;;;;4994165;28;20046;-79
2024/02/13 06:32:51;;;;;;;18.15;2.08;;;;;;;;;;4995323;28;20113;-78
2024/02/13 06:35:18;;;;;;;18.00;2.35;;;;;;;;;;4992727;28;20072;-79
2024/02/13 06:37:46;;;;;;;16.38;2.17;;;;;;;;;;4994461;28;20040;-78
2024/02/13 06:40:13;;;;;;;20.50;2.70;;;;;;;;;;4993934;28;20105;-79
2024/02/13 06:42:40;;;;;;;14.23;2.28;;;;;;;;;;4994355;28;20481;-79
2024/02/13 06:45:09;;;;;;;17.85;2.20;;;;;;;;;;4993774;28;20122;-79
2024/02/13 06:47:36;;;;;;;16.73;1.95;;;;;;;;;;4993960;28;20486;-79
2024/02/13 06:50:11;;;;;;;18.10;2.28;;;;;;;;;;4994116;28;20046;-78
2024/02/13 06:52:39;;;;;;;25.38;2.60;;;;;;;;;;4993818;28;20038;-79
2024/02/13 06:55:09;;;;;;;20.40;2.67;;;;;;;;;;4992771;28;20042;-79
2024/02/13 06:57:36;;;;;;;15.52;2.10;;;;;;;;;;4994040;28;20367;-80
2024/02/13 07:00:08;;;;;;;21.20;2.90;;;;;;;;;;4994152;28;20042;-79
2024/02/13 07:02:35;;;;;;;19.92;2.28;;;;;;;;;;4993872;28;20046;-79
2024/02/13 07:05:04;;;;;;;22.23;2.92;;;;;;;;;;4993594;28;20125;-79
2024/02/13 07:07:31;;;;;;;;;;;;;;;;;;4993976;28;20125;-79
2024/02/13 07:10:12;;;;;;;24.80;2.22;;;;;;;;;;4992951;28;19926;-79
2024/02/13 07:12:39;;;;;;;29.10;2.88;;;;;;;;;;4993768;28;20504;-79
2024/02/13 07:15:06;;;;;;;17.23;2.70;;;;;;;;;;4993282;28;20050;-78
2024/02/13 07:17:33;;;;;;;20.55;2.20;;;;;;;;;;4993697;28;20113;-79
2024/02/13 07:20:18;;;;;;;22.80;2.75;;;;;;;;;;4993008;28;20042;-78
2024/02/13 07:22:45;;;;;;;27.15;2.70;;;;;;;;;;4993578;28;20481;-78
2024/02/13 07:25:14;;;;;;;23.75;2.78;;;;;;;;;;4992970;28;20042;-78
2024/02/13 07:27:42;;;;;;;20.85;2.67;;;;;;;;;;4993652;28;20105;-78
2024/02/13 07:30:12;;;;;;;22.58;2.67;;;;;;;;;;4992981;28;20046;-78
2024/02/13 07:32:42;;;;;;;23.00;2.50;;;;;;;;;;4993677;28;20046;-78
2024/02/13 07:35:09;;;;;;;14.43;2.60;;;;;;;;;;4992983;28;20487;-79
2024/02/13 07:37:36;;;;;;;25.95;3.65;;;;;;;;;;4993641;28;20097;-79
2024/02/13 07:40:04;;;;;;;18.70;2.75;;;;;;;;;;4993503;28;20062;-79
2024/02/13 07:42:30;;;;;;;16.52;2.20;;;;;;;;;;4993202;28;20034;-79
2024/02/13 07:44:58;;;;;;;27.83;3.28;;;;;;;;;;4993400;28;20062;-79
2024/02/13 07:47:26;;;;;;;32.03;3.80;;;;;;;;;;4991075;28;20046;-79
2024/02/13 07:49:54;;;;;;;25.45;3.33;;;;;;;;;;4989895;28;20030;-79
2024/02/13 07:52:21;;;;;;;17.50;2.55;;;;;;;;;;4994414;28;20078;-79
2024/02/13 07:54:48;;;;;;;22.95;3.05;;;;;;;;;;4991554;28;20486;-79
2024/02/13 07:57:16;;;;;;;21.77;3.65;;;;;;;;;;4990291;28;20053;-79
2024/02/13 07:59:44;;;;;;;23.00;3.05;;;;;;;;;;4991036;28;20054;-78
2024/02/13 08:02:12;;;;;;;15.02;2.85;;;;;;;;;;4991838;28;20108;-78
2024/02/13 08:04:40;;;;;;;20.73;3.08;;;;;;;;;;4992504;28;20378;-79
2024/02/13 08:07:08;;;;;;;15.38;2.97;;;;;;;;;;4988122;28;20055;-79
2024/02/13 08:09:35;;;;;;;21.80;3.45;;;;;;;;;;4996020;28;20062;-79
2024/02/13 08:12:06;;;;;;;17.75;2.47;;;;;;;;;;4995068;28;20512;-79
2024/02/13 08:14:34;;;;;;;29.45;3.15;;;;;;;;;;4995706;28;20366;-79
2024/02/13 08:17:06;;;;;;;24.35;4.20;;;;;;;;;;4996115;28;20077;-78
2024/02/13 08:19:40;;;;;;;26.65;8.27;;;;;;;;;;4995670;28;20054;-79
2024/02/13 08:22:07;;;;;;;20.85;4.47;;;;;;;;;;4979021;28;20046;-79
2024/02/13 08:24:35;;;;;;;19.58;4.32;;;;;;;;;;4995720;28;20483;-79
2024/02/13 08:27:02;;;;;;;20.63;3.57;;;;;;;;;;4995974;28;20070;-79
2024/02/13 08:29:29;;;;;;;17.67;3.40;;;;;;;;;;4995316;28;20096;-78
2024/02/13 08:31:57;;;;;;;22.58;2.80;;;;;;;;;;4995941;28;20046;-79
2024/02/13 08:34:25;;;;;;;19.08;3.22;;;;;;;;;;4995033;28;20058;-79
2024/02/13 08:36:54;;;;;;;14.47;2.60;;;;;;;;;;4995839;28;20050;-79
2024/02/13 08:39:21;;;;;;;15.18;3.05;;;;;;;;;;4989862;28;20050;-78
2024/02/13 08:41:47;;;;;;;16.77;1.85;;;;;;;;;;4995770;28;20505;-79
2024/02/13 08:44:16;;;;;;;11.48;2.38;;;;;;;;;;4995100;28;20053;-79
2024/02/13 08:46:43;;;;;;;;;;;;;;;;;;4996028;28;20548;-78
2024/02/13 08:49:11;;;;;;;12.95;1.90;;;;;;;;;;4995191;28;19929;-78
2024/02/13 08:51:39;;;;;;;8.60;1.90;;;;;;;;;;4995415;28;20052;-78
2024/02/13 08:54:06;;;;;;;11.73;1.80;;;;;;;;;;4989820;28;20100;-78
2024/02/13 08:56:33;;;;;;;11.07;1.33;;;;;;;;;;4995480;28;20057;-78
2024/02/13 08:59:01;;;;;;;10.82;1.52;;;;;;;;;;4995610;28;20054;-78
2024/02/13 09:01:29;;;;;;;15.75;2.22;;;;;;;;;;4994759;28;20043;-77
2024/02/13 09:03:56;;;;;;;16.98;5.78;;;;;;;;;;4995339;28;20049;-78
2024/02/13 09:06:23;;;;;;;7.63;2.17;;;;;;;;;;4994634;28;20050;-78
2024/02/13 09:08:50;;;;;;;11.10;2.38;;;;;;;;;;4995149;28;20065;-78
2024/02/13 09:11:17;;;;;;;8.68;1.30;;;;;;;;;;4994641;28;20486;-78
2024/02/13 09:13:45;;;;;;;8.85;1.63;;;;;;;;;;4995218;28;20061;-78
2024/02/13 09:16:13;;;;;;;12.75;1.58;;;;;;;;;;4994275;28;20050;-78
2024/02/13 09:18:40;;;;;;;8.48;1.77;;;;;;;;;;4994302;28;20050;-78
2024/02/13 09:21:09;;;;;;;18.70;3.13;;;;;;;;;;4994371;28;20069;-78
2024/02/13 09:23:37;;;;;;;20.75;2.72;;;;;;;;;;4995045;28;20389;-78
2024/02/13 09:26:04;;;;;;;27.88;3.47;;;;;;;;;;4994154;28;20385;-78
2024/02/13 09:28:31;;;;;;;30.17;3.13;;;;;;;;;;4994854;28;20473;-78
2024/02/13 09:30:58;;;;;;;36.85;3.50;;;;;;;;;;4994312;28;20043;-78
2024/02/13 09:33:26;;;;;;;25.45;2.90;;;;;;;;;;4994169;28;20381;-78
2024/02/13 09:35:53;;;;;;;24.42;3.22;;;;;;;;;;4993395;28;20103;-78
2024/02/13 09:38:21;;;;;;;20.02;2.47;;;;;;;;;;4994176;28;20046;-78
2024/02/13 09:40:49;;;;;;;19.60;2.30;;;;;;;;;;4994434;28;20041;-78
2024/02/13 09:43:18;;;;;;;18.43;2.30;;;;;;;;;;4994101;28;20070;-79
2024/02/13 09:45:45;;;;;;;14.43;1.97;;;;;;;;;;4994365;28;20062;-77
2024/02/13 09:48:20;;;;;;;21.40;3.20;;;;;;;;;;4994045;28;20340;-78
2024/02/13 09:50:51;;;;;;;21.83;2.85;;;;;;;;;;4994381;28;20077;-78
2024/02/13 09:53:28;;;;;;;22.58;2.67;;;;;;;;;;4994004;28;20046;-78
2024/02/13 09:55:57;;;;;;;26.02;2.80;;;;;;;;;;4990252;28;20046;-78
2024/02/13 09:58:25;;;;;;;28.13;2.97;;;;;;;;;;4993501;28;20105;-77
2024/02/13 10:00:53;;;;;;;30.98;3.08;;;;;;;;;;4994303;28;20046;-79
2024/02/13 10:03:25;;;;;;;24.92;2.83;;;;;;;;;;4993484;28;20043;-78
2024/02/13 10:05:52;;;;;;;31.67;3.88;;;;;;;;;;4994353;28;20069;-78
2024/02/13 10:08:26;;;;;;;41.22;3.65;;;;;;;;;;4993276;28;20042;-79
2024/02/13 10:11:04;;;;;;;31.35;4.07;;;;;;;;;;4993916;28;20053;-78
2024/02/13 10:13:39;;;;;;;35.95;4.55;;;;;;;;;;4993787;28;20034;-78
2024/02/13 10:16:22;;;;;;;33.80;3.63;;;;;;;;;;4992487;28;20485;-78
2024/02/13 10:18:54;;;;;;;37.40;3.38;;;;;;;;;;4993797;28;20065;-78
2024/02/13 10:21:25;;;;;;;40.38;4.13;;;;;;;;;;4993569;28;20046;-79
2024/02/13 10:24:15;;;;;;;39.03;4.13;;;;;;;;;;4993926;28;20054;-78
2024/02/13 10:26:42;;;;;;;45.20;3.97;;;;;;;;;;4977291;28;20050;-78
2024/02/13 10:29:10;;;;;;;44.45;4.72;;;;;;;;;;4994573;28;20042;-78
2024/02/13 10:31:37;;;;;;;43.45;4.40;;;;;;;;;;4994995;28;20049;-78
2024/02/13 10:34:09;;;;;;;45.78;4.43;;;;;;;;;;4994866;28;20048;-79
2024/02/13 10:36:39;;;;;;;47.75;4.18;;;;;;;;;;4995830;28;20215;-79
2024/02/13 10:39:08;;;;;;;43.13;4.78;;;;;;;;;;4993763;28;20043;-78
2024/02/13 10:41:40;;;;;;;37.90;4.57;;;;;;;;;;4993346;28;20035;-78
2024/02/13 10:44:11;;;;;;;46.53;4.90;;;;;;;;;;4987512;28;20054;-79
2024/02/13 10:46:40;;;;;;;55.25;5.07;;;;;;;;;;4993145;28;20049;-79
2024/02/13 10:49:37;;;;;;;42.17;4.22;;;;;;;;;;4992024;28;20047;-78
2024/02/13 10:52:08;;;;;;;45.15;4.70;;;;;;;;;;4987079;28;20473;-78
2024/02/13 10:54:40;;;;;;;40.05;3.97;;;;;;;;;;4992901;28;20046;-78
2024/02/13 10:57:07;;;;;;;31.45;4.07;;;;;;;;;;4992679;28;20053;-78
2024/02/13 10:59:35;;;;;;;36.08;4.15;;;;;;;;;;4993188;28;20093;-78
2024/02/13 11:02:04;;;;;;;35.67;4.22;;;;;;;;;;4992674;28;20062;-78
2024/02/13 11:04:32;;;;;;;53.17;4.93;;;;;;;;;;4992821;28;20077;-79
2024/02/13 11:07:01;;;;;;;36.75;4.05;;;;;;;;;;4992915;28;20068;-79
2024/02/13 11:09:28;;;;;;;48.97;4.50;;;;;;;;;;4992286;28;20477;-79
2024/02/13 11:11:55;;;;;;;45.53;5.15;;;;;;;;;;4992588;28;20556;-78
2024/02/13 11:14:23;;;;;;;40.95;5.68;;;;;;;;;;4992615;28;20048;-78
2024/02/13 11:16:57;;;;;;;42.50;4.85;;;;;;;;;;4993707;28;20097;-79
2024/02/13 11:19:35;;;;;;;34.05;4.63;;;;;;;;;;4992315;28;20061;-79
2024/02/13 11:22:08;;;;;;;33.28;4.55;;;;;;;;;;4988200;28;20049;-79
2024/02/13 11:24:49;;;;;;;29.63;4.53;;;;;;;;;;4992408;28;20069;-78
2024/02/13 11:27:17;;;;;;;44.72;5.38;;;;;;;;;;4992097;28;20038;-79
2024/02/13 11:29:58;;;;;;;;;;;;;;;;;;4993282;28;20482;-79
2024/02/13 11:32:29;;;;;;;32.95;5.40;;;;;;;;;;4991972;28;19922;-79
2024/02/13 11:34:58;;;;;;;26.33;2.85;;;;;;;;;;4992493;28;20210;-79
2024/02/13 11:37:28;;;;;;;;;;;;;;;;;;4987451;28;20078;-78
2024/02/13 11:39:58;;;;;;;29.98;3.42;;;;;;;;;;4991120;28;19972;-79
2024/02/13 11:42:33;;;;;;;23.83;3.63;;;;;;;;;;4991778;28;20042;-79
2024/02/13 11:45:01;;;;;;;33.17;4.53;;;;;;;;;;4992187;28;20406;-77
2024/02/13 11:47:28;;;;;;;19.40;3.70;;;;;;;;;;4991874;28;20042;-78
2024/02/13 11:49:56;;;;;;;35.20;4.35;;;;;;;;;;4992309;28;20285;-78
2024/02/13 11:52:23;;;;;;;23.30;3.85;;;;;;;;;;4992048;28;20401;-78
2024/02/13 11:54:51;;;;;;;17.20;2.92;;;;;;;;;;4992119;28;20043;-78
2024/02/13 11:57:19;;;;;;;23.05;4.03;;;;;;;;;;4992117;28;20049;-85
2024/02/13 11:59:57;;;;;;;24.02;3.83;;;;;;;;;;4992313;28;20039;-78
2024/02/13 12:02:24;;;;;;;19.57;3.20;;;;;;;;;;4991595;28;20101;-78
2024/02/13 12:04:52;;;;;;;20.30;3.20;;;;;;;;;;4992029;28;20054;-78
2024/02/13 12:07:19;;;;;;;18.27;3.10;;;;;;;;;;4989704;28;21834;-79
2024/02/13 12:09:50;;;;;;;19.52;2.95;;;;;;;;;;4991286;28;20076;-79
2024/02/13 12:12:17;;;;;;;19.05;3.30;;;;;;;;;;4990363;28;20043;-78
2024/02/13 12:14:44;;;;;;;14.48;2.88;;;;;;;;;;4990655;28;20058;-79
2024/02/13 12:17:12;;;;;;;12.85;2.40;;;;;;;;;;4990350;28;20046;-79
2024/02/13 12:19:43;;;;;;;13.15;2.35;;;;;;;;;;4990790;28;20061;-78
2024/02/13 12:22:16;;;;;;;9.98;2.15;;;;;;;;;;4990159;28;20047;-78
2024/02/13 12:24:45;;;;;;;16.23;3.42;;;;;;;;;;4986666;28;20054;-78
2024/02/13 12:27:15;;;;;;;20.52;3.75;;;;;;;;;;4989022;28;20462;-79
2024/02/13 12:29:43;;;;;;;10.93;2.03;;;;;;;;;;4990908;28;20049;-79
2024/02/13 12:32:16;;;;;;;15.35;3.10;;;;;;;;;;4989666;28;20050;-79
2024/02/13 12:34:48;;;;;;;32.53;5.72;;;;;;;;;;4990634;28;20066;-78
2024/02/13 12:37:18;;;;;;;22.05;4.40;;;;;;;;;;4985968;28;20646;-78
2024/02/13 12:39:45;;;;;;;20.70;4.83;;;;;;;;;;4989047;28;20050;-79
2024/02/13 12:42:13;;;;;;;21.85;5.25;;;;;;;;;;4988913;28;20369;-79
2024/02/13 12:44:40;;;;;;;13.00;3.70;;;;;;;;;;4988969;28;20050;-79
2024/02/13 12:47:10;;;;;;;6.05;1.77;;;;;;;;;;4971020;28;20045;-79
2024/02/13 12:49:38;;;;;;;6.80;1.58;;;;;;;;;;4990875;28;20043;-78
2024/02/13 12:52:06;;;;;;;10.93;1.80;;;;;;;;;;4990349;28;20073;-78
2024/02/13 12:54:33;;;;;;;9.13;1.80;;;;;;;;;;4991897;28;20066;-79
2024/02/13 12:57:00;;;;;;;7.95;1.75;;;;;;;;;;4992461;28;20042;-79
2024/02/13 12:59:28;;;;;;;13.87;2.13;;;;;;;;;;4993405;28;20061;-79
2024/02/13 13:01:58;;;;;;;10.18;2.53;;;;;;;;;;4976830;28;20636;-79
2024/02/13 13:04:26;;;;;;;22.73;3.90;;;;;;;;;;4993240;28;20073;-80
2024/02/13 13:06:53;;;;;;;32.38;5.22;;;;;;;;;;4993785;28;20175;-79
2024/02/13 13:09:20;;;;;;;38.33;6.95;;;;;;;;;;4993099;28;20135;-79
2024/02/13 13:11:54;;;;;;;46.58;7.72;;;;;;;;;;4993839;28;20359;-78
2024/02/13 13:14:23;;;;;;;38.65;6.93;;;;;;;;;;4992689;28;20139;-79
2024/02/13 13:16:51;;;;;;;37.72;7.18;;;;;;;;;;4994609;28;20050;-79
2024/02/13 13:19:20;;;;;;;43.33;6.70;;;;;;;;;;4994881;28;20081;-79
2024/02/13 13:21:49;;;;;;;37.58;6.28;;;;;;;;;;4995484;28;20402;-79
2024/02/13 13:24:16;;;;;;;32.83;5.60;;;;;;;;;;4994747;28;20381;-79
2024/02/13 13:26:43;;;;;;;43.60;7.13;;;;;;;;;;4995404;28;20050;-79
2024/02/13 13:29:11;;;;;;;43.60;6.78;;;;;;;;;;4993930;28;20031;-80
2024/02/13 13:31:38;;;;;;;53.58;7.35;;;;;;;;;;4995119;28;20066;-80
2024/02/13 13:34:08;;;;;;;44.33;5.78;;;;;;;;;;4994183;28;20046;-79
2024/02/13 13:36:36;;;;;;;50.70;6.28;;;;;;;;;;4995301;28;20050;-79
2024/02/13 13:39:06;;;;;;;47.03;6.25;;;;;;;;;;4994571;28;20053;-80
2024/02/13 13:41:35;;;;;;;47.55;6.57;;;;;;;;;;4994275;28;20389;-80
2024/02/13 13:44:02;;;;;;;63.90;7.43;;;;;;;;;;4995222;28;20351;-79
2024/02/13 13:46:32;;;;;;;64.15;7.70;;;;;;;;;;4993841;28;20085;-80
2024/02/13 13:49:01;;;;;;;68.35;8.10;;;;;;;;;;4977354;28;20043;-80
2024/02/13 13:51:29;;;;;;;56.60;7.70;;;;;;;;;;4993997;28;20042;-80
2024/02/13 13:53:55;;;;;;;64.50;7.30;;;;;;;;;;4994469;28;20474;-80
2024/02/13 13:56:23;;;;;;;69.07;7.85;;;;;;;;;;4993804;28;20059;-79
2024/02/13 13:58:50;;;;;;;58.65;8.00;;;;;;;;;;4994469;28;20039;-80
2024/02/13 14:01:17;;;;;;;52.70;7.18;;;;;;;;;;4992344;28;20053;-80
2024/02/13 14:03:44;;;;;;;43.25;6.03;;;;;;;;;;4994361;28;20050;-79
2024/02/13 14:06:11;;;;;;;36.85;5.00;;;;;;;;;;4993427;28;20445;-79
2024/02/13 14:08:38;;;;;;;24.77;3.25;;;;;;;;;;4994190;28;20044;-79
2024/02/13 14:11:06;;;;;;;25.83;4.88;;;;;;;;;;4993497;28;20130;-78
2024/02/13 14:13:33;;;;;;;37.53;5.83;;;;;;;;;;4994081;28;20116;-79
2024/02/13 14:16:00;;;;;;;36.10;4.97;;;;;;;;;;4993918;28;20039;-79
2024/02/13 14:18:28;;;;;;;40.42;6.32;;;;;;;;;;4993554;28;20047;-79
2024/02/13 14:20:55;;;;;;;58.17;6.57;;;;;;;;;;4993739;28;20043;-79
2024/02/13 14:23:23;;;;;;;52.30;7.20;;;;;;;;;;4993271;28;20046;-79
2024/02/13 14:25:50;;;;;;;48.15;6.85;;;;;;;;;;4993121;28;20042;-79
2024/02/13 14:28:17;;;;;;;59.90;7.60;;;;;;;;;;4991783;28;20052;-79
2024/02/13 14:30:45;;;;;;;68.45;7.75;;;;;;;;;;4991646;28;20070;-79
2024/02/13 14:33:13;;;;;;;57.88;7.60;;;;;;;;;;4993259;28;20056;-80
2024/02/13 14:35:42;;;;;;;68.82;9.32;;;;;;;;;;4993540;28;20049;-79
2024/02/13 14:38:09;;;;;;;47.35;7.32;;;;;;;;;;4992913;28;20482;-79
2024/02/13 14:40:39;;;;;;;59.78;7.88;;;;;;;;;;4993664;28;20062;-80
2024/02/13 14:43:06;;;;;;;57.78;7.97;;;;;;;;;;4993237;28;20042;-80
2024/02/13 14:45:35;;;;;;;55.38;8.15;;;;;;;;;;4993213;28;20093;-80